Magnate — H9ZN — position and weather

sailwx.info

Track history (hours):
 
Tides and Currents Weather Stations Pressure Air Temp Water Temp Dewpoint Dewpoint Depression Visibility Wind Speed Wind Dir Waves Ship Positions

Magnate

Last reported at 2017-Jan-24 18:33 UTC. Time now 2017-Jan-24 19:24 UTC.
Position N 27°47' W 015°19'.

Length 140 m; draft 7.6 m.

Type: Cargo ship. MMSI: 357055000.

Date/timePositionNaut miles runAvg speedWind from/ knotsBaromVisibWave heightAir tempDewpointWater temp
2017-Jan-24 18:33N 27°47' W 015°19'1111.5
2017-Jan-24 17:34N 27°59' W 015°19'10 9.3
2017-Jan-24 16:30N 28°07' W 015°24'0 0.1
2017-Jan-24 15:33N 28°07' W 015°24'0 0.0
2017-Jan-24 14:30N 28°07' W 015°24'0 0.0
2017-Jan-24 13:33N 28°07' W 015°24'0 0.0
2017-Jan-24 12:33N 28°07' W 015°24'0 0.0
2017-Jan-24 11:33N 28°07' W 015°24'0 0.0
2017-Jan-24 10:33N 28°07' W 015°24'0 0.0
2017-Jan-24 09:33N 28°07' W 015°24'0 0.0
2017-Jan-24 08:18N 28°07' W 015°24'0 0.0
2017-Jan-24 07:33N 28°07' W 015°24'0 0.1
2017-Jan-24 06:33N 28°07' W 015°24'2 2.3
2017-Jan-24 05:33N 28°08' W 015°22'5 5.2
2017-Jan-24 04:33N 28°11' W 015°18'8 7.5
2017-Jan-24 03:33N 28°17' W 015°12'8 7.8
2017-Jan-24 02:33N 28°22' W 015°06'8 7.7
2017-Jan-24 01:33N 28°28' W 014°60'9 8.8
2017-Jan-24 00:33N 28°34' W 014°52'  
2017-Jan-21 09:26N 35°58' W 005°39'910.7
2017-Jan-21 08:33N 35°60' W 005°28'1010.2
2017-Jan-21 07:33N 36°02' W 005°15'  
2017-Jan-18 11:08N 37°38' E 009°49'710.2
2017-Jan-18 10:25N 37°39' E 009°58'1010.2
2017-Jan-18 09:24N 37°40' E 010°11'8 9.4
2017-Jan-18 08:33N 37°39' E 010°21'1010.2
2017-Jan-18 07:33N 37°36' E 010°33'1110.6
2017-Jan-18 06:33N 37°33' E 010°46'1010.4
2017-Jan-18 05:33N 37°30' E 010°59'1010.0
2017-Jan-18 04:33N 37°28' E 011°11'9 9.0
2017-Jan-18 03:33N 37°23' E 011°21'7 6.6
2017-Jan-18 02:33N 37°20' E 011°28'7 7.3
2017-Jan-18 01:33N 37°16' E 011°36'9 8.3
2017-Jan-18 00:30N 37°12' E 011°45'8 8.4
2017-Jan-17 23:32N 37°08' E 011°54'9 9.1
2017-Jan-17 22:33N 37°04' E 012°04'10 9.6
2017-Jan-17 21:33N 37°01' E 012°16'10 9.8
2017-Jan-17 20:32N 36°58' E 012°28'8210.3
2017-Jan-17 12:33N 36°31' E 014°05'9 8.9
2017-Jan-17 11:33N 36°28' E 014°16'8 7.7
2017-Jan-17 10:33N 36°26' E 014°25'7 6.8
2017-Jan-17 09:33N 36°25' E 014°33'  
Track history (hours):
 
Tides and Currents Weather Stations Pressure Air Temp Water Temp Dewpoint Dewpoint Depression Visibility Wind Speed Wind Dir Waves Ship Positions

Magnate

Last reported at 2017-Jan-24 18:33 UTC. Time now 2017-Jan-24 19:24 UTC.
Position N 27°47' W 015°19'.

Length 140 m; draft 7.6 m.

Type: Cargo ship. MMSI: 357055000.

Date/timePositionNaut miles runAvg speedWind from/ knotsBaromVisibWave heightAir tempDewpointWater temp
2017-Jan-24 18:33N 27°47' W 015°19'1111.5
2017-Jan-24 17:34N 27°59' W 015°19'10 9.3
2017-Jan-24 16:30N 28°07' W 015°24'0 0.1
2017-Jan-24 15:33N 28°07' W 015°24'0 0.0
2017-Jan-24 14:30N 28°07' W 015°24'0 0.0
2017-Jan-24 13:33N 28°07' W 015°24'0 0.0
2017-Jan-24 12:33N 28°07' W 015°24'0 0.0
2017-Jan-24 11:33N 28°07' W 015°24'0 0.0
2017-Jan-24 10:33N 28°07' W 015°24'0 0.0
2017-Jan-24 09:33N 28°07' W 015°24'0 0.0
2017-Jan-24 08:18N 28°07' W 015°24'0 0.0
2017-Jan-24 07:33N 28°07' W 015°24'0 0.1
2017-Jan-24 06:33N 28°07' W 015°24'2 2.3
2017-Jan-24 05:33N 28°08' W 015°22'5 5.2
2017-Jan-24 04:33N 28°11' W 015°18'8 7.5
2017-Jan-24 03:33N 28°17' W 015°12'8 7.8
2017-Jan-24 02:33N 28°22' W 015°06'8 7.7
2017-Jan-24 01:33N 28°28' W 014°60'9 8.8
2017-Jan-24 00:33N 28°34' W 014°52'  
2017-Jan-21 09:26N 35°58' W 005°39'910.7
2017-Jan-21 08:33N 35°60' W 005°28'1010.2
2017-Jan-21 07:33N 36°02' W 005°15'  
2017-Jan-18 11:08N 37°38' E 009°49'710.2
2017-Jan-18 10:25N 37°39' E 009°58'1010.2
2017-Jan-18 09:24N 37°40' E 010°11'8 9.4
2017-Jan-18 08:33N 37°39' E 010°21'1010.2
2017-Jan-18 07:33N 37°36' E 010°33'1110.6
2017-Jan-18 06:33N 37°33' E 010°46'1010.4
2017-Jan-18 05:33N 37°30' E 010°59'1010.0
2017-Jan-18 04:33N 37°28' E 011°11'9 9.0
2017-Jan-18 03:33N 37°23' E 011°21'7 6.6
2017-Jan-18 02:33N 37°20' E 011°28'7 7.3
2017-Jan-18 01:33N 37°16' E 011°36'9 8.3
2017-Jan-18 00:30N 37°12' E 011°45'8 8.4
2017-Jan-17 23:32N 37°08' E 011°54'9 9.1
2017-Jan-17 22:33N 37°04' E 012°04'10 9.6
2017-Jan-17 21:33N 37°01' E 012°16'10 9.8
2017-Jan-17 20:32N 36°58' E 012°28'8210.3
2017-Jan-17 12:33N 36°31' E 014°05'9 8.9
2017-Jan-17 11:33N 36°28' E 014°16'8 7.7
2017-Jan-17 10:33N 36°26' E 014°25'7 6.8
2017-Jan-17 09:33N 36°25' E 014°33'  

Dump ship's entire track history